sensor_id;sensor_type;location;lat;lon;timestamp;P1;durP1;ratioP1;P2;durP2;ratioP2
1354;SDS011;671;48.972;9.276;2024-02-15T00:01:34;0.40;;;0.40;;
1354;SDS011;671;48.972;9.276;2024-02-15T00:04:01;0.50;;;0.50;;
1354;SDS011;671;48.972;9.276;2024-02-15T00:06:27;0.50;;;0.50;;
1354;SDS011;671;48.972;9.276;2024-02-15T00:08:54;0.43;;;0.43;;
1354;SDS011;671;48.972;9.276;2024-02-15T00:11:20;0.50;;;0.50;;
1354;SDS011;671;48.972;9.276;2024-02-15T00:13:47;0.40;;;0.40;;
1354;SDS011;671;48.972;9.276;2024-02-15T00:16:14;0.40;;;0.37;;
1354;SDS011;671;48.972;9.276;2024-02-15T00:18:40;0.53;;;0.53;;
1354;SDS011;671;48.972;9.276;2024-02-15T00:21:07;0.43;;;0.43;;
1354;SDS011;671;48.972;9.276;2024-02-15T00:23:33;0.40;;;0.40;;
1354;SDS011;671;48.972;9.276;2024-02-15T00:26:00;0.50;;;0.50;;
1354;SDS011;671;48.972;9.276;2024-02-15T00:28:26;0.47;;;0.47;;
1354;SDS011;671;48.972;9.276;2024-02-15T00:30:53;0.47;;;0.47;;
1354;SDS011;671;48.972;9.276;2024-02-15T00:33:19;0.50;;;0.50;;
1354;SDS011;671;48.972;9.276;2024-02-15T00:35:46;0.50;;;0.50;;
1354;SDS011;671;48.972;9.276;2024-02-15T00:38:13;0.40;;;0.40;;
1354;SDS011;671;48.972;9.276;2024-02-15T00:40:39;0.40;;;0.40;;
1354;SDS011;671;48.972;9.276;2024-02-15T00:43:06;0.60;;;0.60;;
1354;SDS011;671;48.972;9.276;2024-02-15T00:45:32;0.40;;;0.40;;
1354;SDS011;671;48.972;9.276;2024-02-15T00:47:59;0.50;;;0.50;;
1354;SDS011;671;48.972;9.276;2024-02-15T00:50:25;0.40;;;0.40;;
1354;SDS011;671;48.972;9.276;2024-02-15T00:52:52;0.47;;;0.47;;
1354;SDS011;671;48.972;9.276;2024-02-15T00:55:18;0.60;;;0.60;;
1354;SDS011;671;48.972;9.276;2024-02-15T00:57:46;0.40;;;0.40;;
1354;SDS011;671;48.972;9.276;2024-02-15T01:00:12;0.50;;;0.50;;
1354;SDS011;671;48.972;9.276;2024-02-15T01:02:39;0.50;;;0.50;;
1354;SDS011;671;48.972;9.276;2024-02-15T01:05:06;0.60;;;0.60;;
1354;SDS011;671;48.972;9.276;2024-02-15T01:07:33;0.40;;;0.40;;
1354;SDS011;671;48.972;9.276;2024-02-15T01:09:59;0.50;;;0.50;;
1354;SDS011;671;48.972;9.276;2024-02-15T01:12:25;0.40;;;0.40;;
1354;SDS011;671;48.972;9.276;2024-02-15T01:14:52;0.50;;;0.50;;
1354;SDS011;671;48.972;9.276;2024-02-15T01:17:18;0.50;;;0.50;;
1354;SDS011;671;48.972;9.276;2024-02-15T01:19:45;0.50;;;0.50;;
1354;SDS011;671;48.972;9.276;2024-02-15T01:22:11;0.50;;;0.50;;
1354;SDS011;671;48.972;9.276;2024-02-15T01:24:38;0.40;;;0.40;;
1354;SDS011;671;48.972;9.276;2024-02-15T01:27:05;0.50;;;0.50;;
1354;SDS011;671;48.972;9.276;2024-02-15T01:29:33;0.53;;;0.53;;
1354;SDS011;671;48.972;9.276;2024-02-15T01:32:00;0.40;;;0.40;;
1354;SDS011;671;48.972;9.276;2024-02-15T01:34:28;0.50;;;0.50;;
1354;SDS011;671;48.972;9.276;2024-02-15T01:36:54;0.50;;;0.50;;
1354;SDS011;671;48.972;9.276;2024-02-15T01:39:21;0.47;;;0.47;;
1354;SDS011;671;48.972;9.276;2024-02-15T01:41:47;0.50;;;0.50;;
1354;SDS011;671;48.972;9.276;2024-02-15T01:44:20;0.47;;;0.47;;
1354;SDS011;671;48.972;9.276;2024-02-15T01:46:46;0.40;;;0.40;;
1354;SDS011;671;48.972;9.276;2024-02-15T01:49:14;0.40;;;0.40;;
1354;SDS011;671;48.972;9.276;2024-02-15T01:51:41;0.50;;;0.50;;
1354;SDS011;671;48.972;9.276;2024-02-15T01:54:10;0.43;;;0.43;;
1354;SDS011;671;48.972;9.276;2024-02-15T01:56:38;0.43;;;0.43;;
1354;SDS011;671;48.972;9.276;2024-02-15T01:59:04;0.50;;;0.50;;
1354;SDS011;671;48.972;9.276;2024-02-15T02:01:32;0.50;;;0.50;;
1354;SDS011;671;48.972;9.276;2024-02-15T02:03:58;0.60;;;0.60;;
1354;SDS011;671;48.972;9.276;2024-02-15T02:06:26;0.50;;;0.50;;
1354;SDS011;671;48.972;9.276;2024-02-15T02:08:52;0.50;;;0.50;;
1354;SDS011;671;48.972;9.276;2024-02-15T02:11:22;0.50;;;0.50;;
1354;SDS011;671;48.972;9.276;2024-02-15T02:13:49;0.50;;;0.50;;
1354;SDS011;671;48.972;9.276;2024-02-15T02:16:24;0.40;;;0.40;;
1354;SDS011;671;48.972;9.276;2024-02-15T02:18:52;0.50;;;0.50;;
1354;SDS011;671;48.972;9.276;2024-02-15T02:21:20;0.40;;;0.40;;
1354;SDS011;671;48.972;9.276;2024-02-15T02:23:48;0.50;;;0.50;;
1354;SDS011;671;48.972;9.276;2024-02-15T02:26:24;0.50;;;0.50;;
1354;SDS011;671;48.972;9.276;2024-02-15T02:28:51;0.50;;;0.50;;
1354;SDS011;671;48.972;9.276;2024-02-15T02:31:20;0.53;;;0.53;;
1354;SDS011;671;48.972;9.276;2024-02-15T02:33:49;0.30;;;0.30;;
1354;SDS011;671;48.972;9.276;2024-02-15T02:36:20;0.50;;;0.50;;
1354;SDS011;671;48.972;9.276;2024-02-15T02:38:47;0.50;;;0.50;;
1354;SDS011;671;48.972;9.276;2024-02-15T02:41:16;0.40;;;0.37;;
1354;SDS011;671;48.972;9.276;2024-02-15T02:43:45;0.70;;;0.70;;
1354;SDS011;671;48.972;9.276;2024-02-15T02:46:11;0.40;;;0.40;;
1354;SDS011;671;48.972;9.276;2024-02-15T02:48:38;0.43;;;0.43;;
1354;SDS011;671;48.972;9.276;2024-02-15T02:51:06;0.40;;;0.30;;
1354;SDS011;671;48.972;9.276;2024-02-15T02:53:33;0.30;;;0.30;;
1354;SDS011;671;48.972;9.276;2024-02-15T02:55:59;0.50;;;0.50;;
1354;SDS011;671;48.972;9.276;2024-02-15T02:58:26;0.50;;;0.50;;
1354;SDS011;671;48.972;9.276;2024-02-15T03:00:52;0.40;;;0.40;;
1354;SDS011;671;48.972;9.276;2024-02-15T03:03:19;0.40;;;0.40;;
1354;SDS011;671;48.972;9.276;2024-02-15T03:05:45;0.60;;;0.60;;
1354;SDS011;671;48.972;9.276;2024-02-15T03:08:12;0.60;;;0.60;;
1354;SDS011;671;48.972;9.276;2024-02-15T03:10:38;0.50;;;0.50;;
1354;SDS011;671;48.972;9.276;2024-02-15T03:13:06;0.50;;;0.50;;
1354;SDS011;671;48.972;9.276;2024-02-15T03:15:35;0.50;;;0.50;;
1354;SDS011;671;48.972;9.276;2024-02-15T03:18:02;0.50;;;0.50;;
1354;SDS011;671;48.972;9.276;2024-02-15T03:20:33;0.40;;;0.40;;
1354;SDS011;671;48.972;9.276;2024-02-15T03:23:02;0.40;;;0.40;;
1354;SDS011;671;48.972;9.276;2024-02-15T03:25:29;0.40;;;0.40;;
1354;SDS011;671;48.972;9.276;2024-02-15T03:27:56;0.50;;;0.50;;
1354;SDS011;671;48.972;9.276;2024-02-15T03:30:25;0.40;;;0.37;;
1354;SDS011;671;48.972;9.276;2024-02-15T03:32:52;0.40;;;0.40;;
1354;SDS011;671;48.972;9.276;2024-02-15T03:35:20;0.50;;;0.50;;
1354;SDS011;671;48.972;9.276;2024-02-15T03:37:48;0.43;;;0.43;;
1354;SDS011;671;48.972;9.276;2024-02-15T03:40:20;0.40;;;0.40;;
1354;SDS011;671;48.972;9.276;2024-02-15T03:42:47;0.40;;;0.40;;
1354;SDS011;671;48.972;9.276;2024-02-15T03:45:14;0.60;;;0.60;;
1354;SDS011;671;48.972;9.276;2024-02-15T03:47:40;0.50;;;0.50;;
1354;SDS011;671;48.972;9.276;2024-02-15T03:50:08;0.60;;;0.60;;
1354;SDS011;671;48.972;9.276;2024-02-15T03:52:37;0.40;;;0.40;;
1354;SDS011;671;48.972;9.276;2024-02-15T03:55:05;0.60;;;0.60;;
1354;SDS011;671;48.972;9.276;2024-02-15T03:57:33;0.50;;;0.50;;
1354;SDS011;671;48.972;9.276;2024-02-15T04:00:00;0.57;;;0.57;;
1354;SDS011;671;48.972;9.276;2024-02-15T04:02:26;0.40;;;0.40;;
1354;SDS011;671;48.972;9.276;2024-02-15T04:04:54;0.50;;;0.50;;
1354;SDS011;671;48.972;9.276;2024-02-15T04:07:21;0.40;;;0.40;;
1354;SDS011;671;48.972;9.276;2024-02-15T04:09:48;0.50;;;0.50;;
1354;SDS011;671;48.972;9.276;2024-02-15T04:12:15;0.40;;;0.40;;
1354;SDS011;671;48.972;9.276;2024-02-15T04:14:45;0.50;;;0.50;;
1354;SDS011;671;48.972;9.276;2024-02-15T04:17:12;0.43;;;0.43;;
1354;SDS011;671;48.972;9.276;2024-02-15T04:19:39;0.50;;;0.50;;
1354;SDS011;671;48.972;9.276;2024-02-15T04:22:06;0.60;;;0.60;;
1354;SDS011;671;48.972;9.276;2024-02-15T04:24:36;0.50;;;0.50;;
1354;SDS011;671;48.972;9.276;2024-02-15T04:27:06;0.43;;;0.43;;
1354;SDS011;671;48.972;9.276;2024-02-15T04:29:40;0.60;;;0.60;;
1354;SDS011;671;48.972;9.276;2024-02-15T04:32:07;0.40;;;0.40;;
1354;SDS011;671;48.972;9.276;2024-02-15T04:34:37;0.40;;;0.40;;
1354;SDS011;671;48.972;9.276;2024-02-15T04:37:04;0.50;;;0.50;;
1354;SDS011;671;48.972;9.276;2024-02-15T04:39:37;0.40;;;0.40;;
1354;SDS011;671;48.972;9.276;2024-02-15T04:42:04;0.40;;;0.40;;
1354;SDS011;671;48.972;9.276;2024-02-15T04:44:33;0.40;;;0.40;;
1354;SDS011;671;48.972;9.276;2024-02-15T04:47:01;0.60;;;0.60;;
1354;SDS011;671;48.972;9.276;2024-02-15T04:49:30;0.30;;;0.30;;
1354;SDS011;671;48.972;9.276;2024-02-15T04:51:57;0.40;;;0.40;;
1354;SDS011;671;48.972;9.276;2024-02-15T04:54:24;0.50;;;0.50;;
1354;SDS011;671;48.972;9.276;2024-02-15T04:56:52;0.40;;;0.40;;
1354;SDS011;671;48.972;9.276;2024-02-15T04:59:20;0.37;;;0.37;;
1354;SDS011;671;48.972;9.276;2024-02-15T05:01:50;0.47;;;0.47;;
1354;SDS011;671;48.972;9.276;2024-02-15T05:04:17;0.37;;;0.37;;
1354;SDS011;671;48.972;9.276;2024-02-15T05:06:44;0.50;;;0.50;;
1354;SDS011;671;48.972;9.276;2024-02-15T05:09:11;0.40;;;0.40;;
1354;SDS011;671;48.972;9.276;2024-02-15T05:11:37;0.50;;;0.50;;
1354;SDS011;671;48.972;9.276;2024-02-15T05:14:07;0.50;;;0.50;;
1354;SDS011;671;48.972;9.276;2024-02-15T05:16:34;0.30;;;0.30;;
1354;SDS011;671;48.972;9.276;2024-02-15T05:19:00;0.50;;;0.50;;
1354;SDS011;671;48.972;9.276;2024-02-15T05:21:28;0.60;;;0.60;;
1354;SDS011;671;48.972;9.276;2024-02-15T05:23:56;0.40;;;0.40;;
1354;SDS011;671;48.972;9.276;2024-02-15T05:26:23;0.50;;;0.50;;
1354;SDS011;671;48.972;9.276;2024-02-15T05:28:50;0.43;;;0.43;;
1354;SDS011;671;48.972;9.276;2024-02-15T05:31:19;0.50;;;0.50;;
1354;SDS011;671;48.972;9.276;2024-02-15T05:33:46;0.50;;;0.50;;
1354;SDS011;671;48.972;9.276;2024-02-15T05:36:13;0.60;;;0.60;;
1354;SDS011;671;48.972;9.276;2024-02-15T05:38:41;0.40;;;0.40;;
1354;SDS011;671;48.972;9.276;2024-02-15T05:41:11;0.40;;;0.40;;
1354;SDS011;671;48.972;9.276;2024-02-15T05:43:40;0.50;;;0.50;;
1354;SDS011;671;48.972;9.276;2024-02-15T05:46:07;0.30;;;0.30;;
1354;SDS011;671;48.972;9.276;2024-02-15T05:48:35;0.60;;;0.60;;
1354;SDS011;671;48.972;9.276;2024-02-15T05:51:03;0.50;;;0.50;;
1354;SDS011;671;48.972;9.276;2024-02-15T05:53:30;0.40;;;0.40;;
1354;SDS011;671;48.972;9.276;2024-02-15T05:55:59;0.50;;;0.50;;
1354;SDS011;671;48.972;9.276;2024-02-15T05:58:25;0.40;;;0.37;;
1354;SDS011;671;48.972;9.276;2024-02-15T06:00:52;0.47;;;0.47;;
1354;SDS011;671;48.972;9.276;2024-02-15T06:03:19;0.30;;;0.30;;
1354;SDS011;671;48.972;9.276;2024-02-15T06:05:48;0.33;;;0.33;;
1354;SDS011;671;48.972;9.276;2024-02-15T06:08:15;0.50;;;0.50;;
1354;SDS011;671;48.972;9.276;2024-02-15T06:10:41;0.40;;;0.40;;
1354;SDS011;671;48.972;9.276;2024-02-15T06:13:08;0.40;;;0.40;;
1354;SDS011;671;48.972;9.276;2024-02-15T06:15:35;0.47;;;0.47;;
1354;SDS011;671;48.972;9.276;2024-02-15T06:18:02;0.40;;;0.40;;
1354;SDS011;671;48.972;9.276;2024-02-15T06:20:34;0.50;;;0.50;;
1354;SDS011;671;48.972;9.276;2024-02-15T06:23:01;0.47;;;0.47;;
1354;SDS011;671;48.972;9.276;2024-02-15T06:25:34;0.40;;;0.40;;
1354;SDS011;671;48.972;9.276;2024-02-15T06:28:01;0.50;;;0.50;;
1354;SDS011;671;48.972;9.276;2024-02-15T06:30:39;0.40;;;0.40;;
1354;SDS011;671;48.972;9.276;2024-02-15T06:33:24;0.50;;;0.50;;
1354;SDS011;671;48.972;9.276;2024-02-15T06:36:09;0.40;;;0.40;;
1354;SDS011;671;48.972;9.276;2024-02-15T06:38:55;0.40;;;0.40;;
1354;SDS011;671;48.972;9.276;2024-02-15T06:41:40;0.50;;;0.50;;
1354;SDS011;671;48.972;9.276;2024-02-15T06:44:06;0.50;;;0.50;;
1354;SDS011;671;48.972;9.276;2024-02-15T06:46:33;0.43;;;0.43;;
1354;SDS011;671;48.972;9.276;2024-02-15T06:48:59;0.50;;;0.50;;
1354;SDS011;671;48.972;9.276;2024-02-15T06:51:26;0.40;;;0.40;;
1354;SDS011;671;48.972;9.276;2024-02-15T06:53:52;0.47;;;0.47;;
1354;SDS011;671;48.972;9.276;2024-02-15T06:56:22;0.50;;;0.50;;
1354;SDS011;671;48.972;9.276;2024-02-15T06:58:49;0.40;;;0.40;;
1354;SDS011;671;48.972;9.276;2024-02-15T07:01:16;0.40;;;0.40;;
1354;SDS011;671;48.972;9.276;2024-02-15T07:03:43;0.50;;;0.50;;
1354;SDS011;671;48.972;9.276;2024-02-15T07:06:13;0.50;;;0.50;;
1354;SDS011;671;48.972;9.276;2024-02-15T07:08:40;0.60;;;0.60;;
1354;SDS011;671;48.972;9.276;2024-02-15T07:11:07;0.40;;;0.40;;
1354;SDS011;671;48.972;9.276;2024-02-15T07:13:37;0.50;;;0.50;;
1354;SDS011;671;48.972;9.276;2024-02-15T07:16:06;0.40;;;0.40;;
1354;SDS011;671;48.972;9.276;2024-02-15T07:18:33;0.43;;;0.43;;
1354;SDS011;671;48.972;9.276;2024-02-15T07:20:58;0.40;;;0.40;;
1354;SDS011;671;48.972;9.276;2024-02-15T07:23:27;0.40;;;0.40;;
1354;SDS011;671;48.972;9.276;2024-02-15T07:25:53;0.40;;;0.40;;
1354;SDS011;671;48.972;9.276;2024-02-15T07:28:20;0.40;;;0.40;;
1354;SDS011;671;48.972;9.276;2024-02-15T07:30:46;0.50;;;0.50;;
1354;SDS011;671;48.972;9.276;2024-02-15T07:33:16;0.40;;;0.40;;
1354;SDS011;671;48.972;9.276;2024-02-15T07:35:44;0.50;;;0.50;;
1354;SDS011;671;48.972;9.276;2024-02-15T07:38:10;0.30;;;0.30;;
1354;SDS011;671;48.972;9.276;2024-02-15T07:40:37;0.40;;;0.40;;
1354;SDS011;671;48.972;9.276;2024-02-15T07:43:05;0.30;;;0.30;;
1354;SDS011;671;48.972;9.276;2024-02-15T07:45:32;0.40;;;0.40;;
1354;SDS011;671;48.972;9.276;2024-02-15T07:48:03;0.50;;;0.50;;
1354;SDS011;671;48.972;9.276;2024-02-15T07:50:30;0.40;;;0.40;;
1354;SDS011;671;48.972;9.276;2024-02-15T07:52:57;0.50;;;0.50;;
1354;SDS011;671;48.972;9.276;2024-02-15T07:55:24;0.40;;;0.40;;
1354;SDS011;671;48.972;9.276;2024-02-15T07:57:50;0.50;;;0.50;;
1354;SDS011;671;48.972;9.276;2024-02-15T08:00:19;0.43;;;0.43;;
1354;SDS011;671;48.972;9.276;2024-02-15T08:02:45;0.40;;;0.40;;
1354;SDS011;671;48.972;9.276;2024-02-15T08:05:13;0.50;;;0.50;;
1354;SDS011;671;48.972;9.276;2024-02-15T08:07:40;0.50;;;0.50;;
1354;SDS011;671;48.972;9.276;2024-02-15T08:10:08;0.40;;;0.40;;
1354;SDS011;671;48.972;9.276;2024-02-15T08:12:44;0.47;;;0.47;;
1354;SDS011;671;48.972;9.276;2024-02-15T08:15:12;0.43;;;0.43;;
1354;SDS011;671;48.972;9.276;2024-02-15T08:17:42;0.40;;;0.40;;
1354;SDS011;671;48.972;9.276;2024-02-15T08:20:12;0.40;;;0.40;;
1354;SDS011;671;48.972;9.276;2024-02-15T08:22:40;0.43;;;0.43;;
1354;SDS011;671;48.972;9.276;2024-02-15T08:25:09;0.50;;;0.50;;
1354;SDS011;671;48.972;9.276;2024-02-15T08:27:41;0.40;;;0.40;;
1354;SDS011;671;48.972;9.276;2024-02-15T08:30:10;0.50;;;0.50;;
1354;SDS011;671;48.972;9.276;2024-02-15T08:32:42;0.30;;;0.30;;
1354;SDS011;671;48.972;9.276;2024-02-15T08:35:09;0.40;;;0.40;;
1354;SDS011;671;48.972;9.276;2024-02-15T08:37:37;0.30;;;0.30;;
1354;SDS011;671;48.972;9.276;2024-02-15T08:40:05;0.30;;;0.30;;
1354;SDS011;671;48.972;9.276;2024-02-15T08:42:40;0.40;;;0.40;;
1354;SDS011;671;48.972;9.276;2024-02-15T08:45:08;0.33;;;0.33;;
1354;SDS011;671;48.972;9.276;2024-02-15T08:47:38;0.40;;;0.40;;
1354;SDS011;671;48.972;9.276;2024-02-15T08:50:06;0.40;;;0.40;;
1354;SDS011;671;48.972;9.276;2024-02-15T08:52:37;0.37;;;0.37;;
1354;SDS011;671;48.972;9.276;2024-02-15T08:55:05;0.30;;;0.30;;
1354;SDS011;671;48.972;9.276;2024-02-15T08:57:36;0.40;;;0.40;;
1354;SDS011;671;48.972;9.276;2024-02-15T09:00:05;0.40;;;0.40;;
1354;SDS011;671;48.972;9.276;2024-02-15T09:02:42;0.40;;;0.40;;
1354;SDS011;671;48.972;9.276;2024-02-15T09:05:13;0.40;;;0.40;;
1354;SDS011;671;48.972;9.276;2024-02-15T09:07:40;0.40;;;0.40;;
1354;SDS011;671;48.972;9.276;2024-02-15T09:10:08;0.30;;;0.23;;
1354;SDS011;671;48.972;9.276;2024-02-15T09:12:36;0.40;;;0.40;;
1354;SDS011;671;48.972;9.276;2024-02-15T09:15:06;0.40;;;0.40;;
1354;SDS011;671;48.972;9.276;2024-02-15T09:17:34;0.47;;;0.47;;
1354;SDS011;671;48.972;9.276;2024-02-15T09:20:11;0.40;;;0.40;;
1354;SDS011;671;48.972;9.276;2024-02-15T09:22:42;0.50;;;0.50;;
1354;SDS011;671;48.972;9.276;2024-02-15T09:25:18;0.40;;;0.30;;
1354;SDS011;671;48.972;9.276;2024-02-15T09:27:45;0.37;;;0.37;;
1354;SDS011;671;48.972;9.276;2024-02-15T09:30:12;0.30;;;0.30;;
1354;SDS011;671;48.972;9.276;2024-02-15T09:32:39;0.40;;;0.40;;
1354;SDS011;671;48.972;9.276;2024-02-15T09:35:05;0.40;;;0.40;;
1354;SDS011;671;48.972;9.276;2024-02-15T09:37:38;0.40;;;0.40;;
1354;SDS011;671;48.972;9.276;2024-02-15T09:40:10;0.40;;;0.40;;
1354;SDS011;671;48.972;9.276;2024-02-15T09:42:38;0.40;;;0.40;;
1354;SDS011;671;48.972;9.276;2024-02-15T09:45:06;0.40;;;0.40;;
1354;SDS011;671;48.972;9.276;2024-02-15T09:47:37;0.40;;;0.33;;
1354;SDS011;671;48.972;9.276;2024-02-15T09:50:10;0.50;;;0.50;;
1354;SDS011;671;48.972;9.276;2024-02-15T09:52:40;0.30;;;0.30;;
1354;SDS011;671;48.972;9.276;2024-02-15T09:55:10;0.33;;;0.33;;
1354;SDS011;671;48.972;9.276;2024-02-15T09:57:43;0.40;;;0.40;;
1354;SDS011;671;48.972;9.276;2024-02-15T10:00:14;0.50;;;0.50;;
1354;SDS011;671;48.972;9.276;2024-02-15T10:02:43;0.33;;;0.33;;
1354;SDS011;671;48.972;9.276;2024-02-15T10:05:11;0.30;;;0.30;;
1354;SDS011;671;48.972;9.276;2024-02-15T10:07:38;0.30;;;0.30;;
1354;SDS011;671;48.972;9.276;2024-02-15T10:12:42;0.30;;;0.30;;
1354;SDS011;671;48.972;9.276;2024-02-15T10:18:10;0.40;;;0.40;;
1354;SDS011;671;48.972;9.276;2024-02-15T10:20:38;0.40;;;0.40;;
1354;SDS011;671;48.972;9.276;2024-02-15T10:25:34;0.40;;;0.40;;
1354;SDS011;671;48.972;9.276;2024-02-15T10:28:06;0.30;;;0.30;;
1354;SDS011;671;48.972;9.276;2024-02-15T10:30:34;0.30;;;0.30;;
1354;SDS011;671;48.972;9.276;2024-02-15T10:33:05;0.40;;;0.40;;
1354;SDS011;671;48.972;9.276;2024-02-15T10:35:33;0.30;;;0.30;;
1354;SDS011;671;48.972;9.276;2024-02-15T10:38:06;0.30;;;0.30;;
1354;SDS011;671;48.972;9.276;2024-02-15T10:40:37;0.30;;;0.30;;
1354;SDS011;671;48.972;9.276;2024-02-15T10:43:07;0.37;;;0.37;;
1354;SDS011;671;48.972;9.276;2024-02-15T10:45:34;0.40;;;0.40;;
1354;SDS011;671;48.972;9.276;2024-02-15T10:48:05;0.40;;;0.40;;
1354;SDS011;671;48.972;9.276;2024-02-15T10:50:33;0.30;;;0.30;;
1354;SDS011;671;48.972;9.276;2024-02-15T10:53:00;0.30;;;0.30;;
1354;SDS011;671;48.972;9.276;2024-02-15T10:58:32;0.40;;;0.40;;
1354;SDS011;671;48.972;9.276;2024-02-15T11:01:07;0.30;;;0.20;;
1354;SDS011;671;48.972;9.276;2024-02-15T11:03:36;0.30;;;0.30;;
1354;SDS011;671;48.972;9.276;2024-02-15T11:06:14;0.30;;;0.30;;
1354;SDS011;671;48.972;9.276;2024-02-15T11:08:42;0.30;;;0.20;;
1354;SDS011;671;48.972;9.276;2024-02-15T11:11:10;0.30;;;0.30;;
1354;SDS011;671;48.972;9.276;2024-02-15T11:13:40;0.40;;;0.40;;
1354;SDS011;671;48.972;9.276;2024-02-15T11:16:08;0.40;;;0.40;;
1354;SDS011;671;48.972;9.276;2024-02-15T11:18:41;0.30;;;0.20;;
1354;SDS011;671;48.972;9.276;2024-02-15T11:21:17;0.37;;;0.37;;
1354;SDS011;671;48.972;9.276;2024-02-15T11:23:44;0.30;;;0.20;;
1354;SDS011;671;48.972;9.276;2024-02-15T11:29:47;0.30;;;0.20;;
1354;SDS011;671;48.972;9.276;2024-02-15T11:35:08;0.40;;;0.37;;
1354;SDS011;671;48.972;9.276;2024-02-15T11:40:15;0.30;;;0.30;;
1354;SDS011;671;48.972;9.276;2024-02-15T11:42:43;0.30;;;0.20;;
1354;SDS011;671;48.972;9.276;2024-02-15T11:45:11;0.30;;;0.30;;
1354;SDS011;671;48.972;9.276;2024-02-15T11:47:39;0.30;;;0.30;;
1354;SDS011;671;48.972;9.276;2024-02-15T11:50:09;0.30;;;0.30;;
1354;SDS011;671;48.972;9.276;2024-02-15T11:52:40;0.30;;;0.30;;
1354;SDS011;671;48.972;9.276;2024-02-15T11:55:08;0.30;;;0.30;;
1354;SDS011;671;48.972;9.276;2024-02-15T11:57:39;0.30;;;0.30;;
1354;SDS011;671;48.972;9.276;2024-02-15T12:00:25;0.30;;;0.20;;
1354;SDS011;671;48.972;9.276;2024-02-15T12:03:13;0.30;;;0.30;;
1354;SDS011;671;48.972;9.276;2024-02-15T12:05:59;0.30;;;0.30;;
1354;SDS011;671;48.972;9.276;2024-02-15T12:08:44;0.30;;;0.30;;
1354;SDS011;671;48.972;9.276;2024-02-15T12:11:30;0.30;;;0.30;;
1354;SDS011;671;48.972;9.276;2024-02-15T12:14:16;0.30;;;0.30;;
1354;SDS011;671;48.972;9.276;2024-02-15T12:17:09;0.30;;;0.20;;
1354;SDS011;671;48.972;9.276;2024-02-15T12:19:56;0.30;;;0.30;;
1354;SDS011;671;48.972;9.276;2024-02-15T12:22:44;0.30;;;0.30;;
1354;SDS011;671;48.972;9.276;2024-02-15T12:25:13;0.30;;;0.23;;
1354;SDS011;671;48.972;9.276;2024-02-15T12:27:44;0.30;;;0.20;;
1354;SDS011;671;48.972;9.276;2024-02-15T12:30:12;0.30;;;0.30;;
1354;SDS011;671;48.972;9.276;2024-02-15T12:32:41;0.30;;;0.20;;
1354;SDS011;671;48.972;9.276;2024-02-15T12:35:11;0.30;;;0.20;;
1354;SDS011;671;48.972;9.276;2024-02-15T12:37:43;0.30;;;0.20;;
1354;SDS011;671;48.972;9.276;2024-02-15T12:40:10;0.30;;;0.20;;
1354;SDS011;671;48.972;9.276;2024-02-15T12:42:42;0.30;;;0.20;;
1354;SDS011;671;48.972;9.276;2024-02-15T12:45:16;0.30;;;0.20;;
1354;SDS011;671;48.972;9.276;2024-02-15T12:47:52;0.30;;;0.20;;
1354;SDS011;671;48.972;9.276;2024-02-15T12:50:19;0.30;;;0.20;;
1354;SDS011;671;48.972;9.276;2024-02-15T12:52:48;0.30;;;0.20;;
1354;SDS011;671;48.972;9.276;2024-02-15T12:55:19;0.30;;;0.30;;
1354;SDS011;671;48.972;9.276;2024-02-15T12:57:47;0.30;;;0.20;;
1354;SDS011;671;48.972;9.276;2024-02-15T13:00:17;0.30;;;0.30;;
1354;SDS011;671;48.972;9.276;2024-02-15T13:02:45;0.40;;;0.40;;
1354;SDS011;671;48.972;9.276;2024-02-15T13:05:15;0.30;;;0.20;;
1354;SDS011;671;48.972;9.276;2024-02-15T13:07:45;0.30;;;0.20;;
1354;SDS011;671;48.972;9.276;2024-02-15T13:10:12;0.30;;;0.20;;
1354;SDS011;671;48.972;9.276;2024-02-15T13:12:41;0.30;;;0.27;;
1354;SDS011;671;48.972;9.276;2024-02-15T13:15:09;0.30;;;0.30;;
1354;SDS011;671;48.972;9.276;2024-02-15T13:17:53;0.30;;;0.30;;
1354;SDS011;671;48.972;9.276;2024-02-15T13:20:21;0.30;;;0.30;;
1354;SDS011;671;48.972;9.276;2024-02-15T13:23:02;0.30;;;0.20;;
1354;SDS011;671;48.972;9.276;2024-02-15T13:25:35;0.30;;;0.20;;
1354;SDS011;671;48.972;9.276;2024-02-15T13:28:09;0.30;;;0.20;;
1354;SDS011;671;48.972;9.276;2024-02-15T13:30:38;0.30;;;0.20;;
1354;SDS011;671;48.972;9.276;2024-02-15T13:33:07;0.30;;;0.20;;
1354;SDS011;671;48.972;9.276;2024-02-15T13:35:33;0.30;;;0.30;;
1354;SDS011;671;48.972;9.276;2024-02-15T13:38:00;0.30;;;0.20;;
1354;SDS011;671;48.972;9.276;2024-02-15T13:40:28;0.30;;;0.20;;
1354;SDS011;671;48.972;9.276;2024-02-15T13:42:57;0.30;;;0.20;;
1354;SDS011;671;48.972;9.276;2024-02-15T13:45:28;0.30;;;0.27;;
1354;SDS011;671;48.972;9.276;2024-02-15T13:47:58;0.30;;;0.20;;
1354;SDS011;671;48.972;9.276;2024-02-15T13:50:29;0.30;;;0.20;;
1354;SDS011;671;48.972;9.276;2024-02-15T13:52:56;0.30;;;0.20;;
1354;SDS011;671;48.972;9.276;2024-02-15T13:55:26;0.30;;;0.20;;
1354;SDS011;671;48.972;9.276;2024-02-15T13:57:54;0.30;;;0.20;;
1354;SDS011;671;48.972;9.276;2024-02-15T14:00:24;0.30;;;0.20;;
1354;SDS011;671;48.972;9.276;2024-02-15T14:03:02;0.30;;;0.20;;
1354;SDS011;671;48.972;9.276;2024-02-15T14:05:31;0.30;;;0.20;;
1354;SDS011;671;48.972;9.276;2024-02-15T14:07:59;0.30;;;0.20;;
1354;SDS011;671;48.972;9.276;2024-02-15T14:10:31;0.30;;;0.20;;
1354;SDS011;671;48.972;9.276;2024-02-15T14:13:00;0.30;;;0.20;;
1354;SDS011;671;48.972;9.276;2024-02-15T14:15:47;0.30;;;0.30;;
1354;SDS011;671;48.972;9.276;2024-02-15T14:18:14;0.30;;;0.20;;
1354;SDS011;671;48.972;9.276;2024-02-15T14:20:42;0.30;;;0.20;;
1354;SDS011;671;48.972;9.276;2024-02-15T14:23:09;0.30;;;0.20;;
1354;SDS011;671;48.972;9.276;2024-02-15T14:25:39;0.30;;;0.20;;
1354;SDS011;671;48.972;9.276;2024-02-15T14:28:06;0.30;;;0.30;;
1354;SDS011;671;48.972;9.276;2024-02-15T14:30:35;0.30;;;0.30;;
1354;SDS011;671;48.972;9.276;2024-02-15T14:33:21;0.30;;;0.20;;
1354;SDS011;671;48.972;9.276;2024-02-15T14:35:49;0.30;;;0.30;;
1354;SDS011;671;48.972;9.276;2024-02-15T14:38:16;0.30;;;0.20;;
1354;SDS011;671;48.972;9.276;2024-02-15T14:40:45;0.30;;;0.20;;
1354;SDS011;671;48.972;9.276;2024-02-15T14:43:24;0.30;;;0.23;;
1354;SDS011;671;48.972;9.276;2024-02-15T14:45:52;0.30;;;0.30;;
1354;SDS011;671;48.972;9.276;2024-02-15T14:48:19;0.30;;;0.30;;
1354;SDS011;671;48.972;9.276;2024-02-15T14:50:46;0.30;;;0.30;;
1354;SDS011;671;48.972;9.276;2024-02-15T14:53:13;0.30;;;0.20;;
1354;SDS011;671;48.972;9.276;2024-02-15T14:55:41;0.30;;;0.20;;
1354;SDS011;671;48.972;9.276;2024-02-15T14:58:14;0.30;;;0.20;;
1354;SDS011;671;48.972;9.276;2024-02-15T15:00:44;0.30;;;0.30;;
1354;SDS011;671;48.972;9.276;2024-02-15T15:03:11;0.30;;;0.20;;
1354;SDS011;671;48.972;9.276;2024-02-15T15:05:41;0.30;;;0.20;;
1354;SDS011;671;48.972;9.276;2024-02-15T15:08:27;0.30;;;0.20;;
1354;SDS011;671;48.972;9.276;2024-02-15T15:11:12;0.30;;;0.30;;
1354;SDS011;671;48.972;9.276;2024-02-15T15:13:57;0.30;;;0.20;;
1354;SDS011;671;48.972;9.276;2024-02-15T15:16:24;0.30;;;0.30;;
1354;SDS011;671;48.972;9.276;2024-02-15T15:18:51;0.30;;;0.27;;
1354;SDS011;671;48.972;9.276;2024-02-15T15:21:18;0.30;;;0.20;;
1354;SDS011;671;48.972;9.276;2024-02-15T15:23:45;0.30;;;0.20;;
1354;SDS011;671;48.972;9.276;2024-02-15T15:26:11;0.30;;;0.20;;
1354;SDS011;671;48.972;9.276;2024-02-15T15:28:45;0.30;;;0.20;;
1354;SDS011;671;48.972;9.276;2024-02-15T15:31:11;0.30;;;0.30;;
1354;SDS011;671;48.972;9.276;2024-02-15T15:33:38;0.30;;;0.27;;
1354;SDS011;671;48.972;9.276;2024-02-15T15:36:04;0.30;;;0.20;;
1354;SDS011;671;48.972;9.276;2024-02-15T15:38:31;0.30;;;0.30;;
1354;SDS011;671;48.972;9.276;2024-02-15T15:40:57;0.30;;;0.20;;
1354;SDS011;671;48.972;9.276;2024-02-15T15:43:25;0.30;;;0.20;;
1354;SDS011;671;48.972;9.276;2024-02-15T15:45:52;0.30;;;0.20;;
1354;SDS011;671;48.972;9.276;2024-02-15T15:48:20;0.30;;;0.20;;
1354;SDS011;671;48.972;9.276;2024-02-15T15:50:47;0.30;;;0.30;;
1354;SDS011;671;48.972;9.276;2024-02-15T15:53:14;0.30;;;0.20;;
1354;SDS011;671;48.972;9.276;2024-02-15T15:55:41;0.30;;;0.20;;
1354;SDS011;671;48.972;9.276;2024-02-15T15:58:08;0.30;;;0.20;;
1354;SDS011;671;48.972;9.276;2024-02-15T16:00:35;0.30;;;0.20;;
1354;SDS011;671;48.972;9.276;2024-02-15T16:03:02;0.30;;;0.20;;